sensor_id;sensor_type;location;lat;lon;timestamp;temperature;humidity
45868;DHT22;31582;45.490;7.860;2023-06-19T01:00:47;19.80;94.90
45868;DHT22;31582;45.490;7.860;2023-06-19T01:03:29;19.80;95.50
45868;DHT22;31582;45.490;7.860;2023-06-19T01:05:56;19.80;94.90
45868;DHT22;31582;45.490;7.860;2023-06-19T01:11:13;19.80;94.60
45868;DHT22;31582;45.490;7.860;2023-06-19T01:13:58;19.80;94.50
45868;DHT22;31582;45.490;7.860;2023-06-19T01:16:27;19.80;94.40
45868;DHT22;31582;45.490;7.860;2023-06-19T01:18:54;19.80;94.60
45868;DHT22;31582;45.490;7.860;2023-06-19T01:21:21;19.80;94.50
45868;DHT22;31582;45.490;7.860;2023-06-19T01:23:48;19.80;94.20
45868;DHT22;31582;45.490;7.860;2023-06-19T01:26:17;19.70;94.20
45868;DHT22;31582;45.490;7.860;2023-06-19T01:28:44;19.70;94.30
45868;DHT22;31582;45.490;7.860;2023-06-19T01:31:13;19.70;93.20
45868;DHT22;31582;45.490;7.860;2023-06-19T01:33:42;19.80;93.50
45868;DHT22;31582;45.490;7.860;2023-06-19T01:36:09;19.80;93.00
45868;DHT22;31582;45.490;7.860;2023-06-19T01:38:37;19.90;92.20
45868;DHT22;31582;45.490;7.860;2023-06-19T01:41:04;19.90;92.10
45868;DHT22;31582;45.490;7.860;2023-06-19T01:43:31;19.90;92.00
45868;DHT22;31582;45.490;7.860;2023-06-19T01:45:58;20.00;91.90
45868;DHT22;31582;45.490;7.860;2023-06-19T01:48:25;20.00;91.50
45868;DHT22;31582;45.490;7.860;2023-06-19T01:50:52;20.00;91.40
45868;DHT22;31582;45.490;7.860;2023-06-19T01:53:19;20.10;91.30
45868;DHT22;31582;45.490;7.860;2023-06-19T01:55:46;20.10;91.00
45868;DHT22;31582;45.490;7.860;2023-06-19T01:58:13;20.20;90.70
45868;DHT22;31582;45.490;7.860;2023-06-19T02:00:39;20.20;90.50
45868;DHT22;31582;45.490;7.860;2023-06-19T02:03:06;20.20;90.80
45868;DHT22;31582;45.490;7.860;2023-06-19T02:05:33;20.20;90.20
45868;DHT22;31582;45.490;7.860;2023-06-19T02:08:00;20.20;90.30
45868;DHT22;31582;45.490;7.860;2023-06-19T02:10:27;20.20;90.40
45868;DHT22;31582;45.490;7.860;2023-06-19T02:12:54;20.20;90.20
45868;DHT22;31582;45.490;7.860;2023-06-19T02:15:21;20.10;90.50
45868;DHT22;31582;45.490;7.860;2023-06-19T02:17:48;20.10;90.50
45868;DHT22;31582;45.490;7.860;2023-06-19T02:20:15;20.10;90.10
45868;DHT22;31582;45.490;7.860;2023-06-19T02:22:42;20.10;90.00
45868;DHT22;31582;45.490;7.860;2023-06-19T02:25:08;20.10;90.10
45868;DHT22;31582;45.490;7.860;2023-06-19T02:27:35;20.10;90.00
45868;DHT22;31582;45.490;7.860;2023-06-19T02:30:02;20.10;89.80
45868;DHT22;31582;45.490;7.860;2023-06-19T02:32:29;20.10;90.00
45868;DHT22;31582;45.490;7.860;2023-06-19T02:34:57;20.00;90.30
45868;DHT22;31582;45.490;7.860;2023-06-19T02:37:24;20.00;90.40
45868;DHT22;31582;45.490;7.860;2023-06-19T02:39:50;20.00;90.60
45868;DHT22;31582;45.490;7.860;2023-06-19T02:42:17;19.90;91.00
45868;DHT22;31582;45.490;7.860;2023-06-19T02:44:44;19.90;91.10
45868;DHT22;31582;45.490;7.860;2023-06-19T02:47:12;19.90;91.20
45868;DHT22;31582;45.490;7.860;2023-06-19T02:49:38;19.90;90.90
45868;DHT22;31582;45.490;7.860;2023-06-19T02:52:05;19.90;90.50
45868;DHT22;31582;45.490;7.860;2023-06-19T02:54:32;19.90;90.30
45868;DHT22;31582;45.490;7.860;2023-06-19T02:56:59;20.00;90.60
45868;DHT22;31582;45.490;7.860;2023-06-19T02:59:26;20.00;90.30
45868;DHT22;31582;45.490;7.860;2023-06-19T03:01:53;20.00;90.20
45868;DHT22;31582;45.490;7.860;2023-06-19T03:04:20;20.00;90.60
45868;DHT22;31582;45.490;7.860;2023-06-19T03:06:46;19.90;90.80
45868;DHT22;31582;45.490;7.860;2023-06-19T03:09:13;19.90;90.50
45868;DHT22;31582;45.490;7.860;2023-06-19T03:11:40;19.90;90.40
45868;DHT22;31582;45.490;7.860;2023-06-19T03:14:07;19.90;90.00
45868;DHT22;31582;45.490;7.860;2023-06-19T03:16:34;20.00;89.80
45868;DHT22;31582;45.490;7.860;2023-06-19T03:19:01;20.00;88.90
45868;DHT22;31582;45.490;7.860;2023-06-19T03:21:28;20.00;89.20
45868;DHT22;31582;45.490;7.860;2023-06-19T03:23:55;20.00;88.60
45868;DHT22;31582;45.490;7.860;2023-06-19T03:26:22;20.10;87.70
45868;DHT22;31582;45.490;7.860;2023-06-19T03:28:48;20.10;87.30
45868;DHT22;31582;45.490;7.860;2023-06-19T03:31:15;20.10;87.00
45868;DHT22;31582;45.490;7.860;2023-06-19T03:33:42;20.00;87.40
45868;DHT22;31582;45.490;7.860;2023-06-19T03:36:09;20.00;87.70
45868;DHT22;31582;45.490;7.860;2023-06-19T03:38:37;20.00;89.00
45868;DHT22;31582;45.490;7.860;2023-06-19T03:41:04;19.90;89.10
45868;DHT22;31582;45.490;7.860;2023-06-19T03:43:30;19.80;89.70
45868;DHT22;31582;45.490;7.860;2023-06-19T03:45:57;19.80;90.30
45868;DHT22;31582;45.490;7.860;2023-06-19T03:48:24;19.80;90.30
45868;DHT22;31582;45.490;7.860;2023-06-19T03:50:51;19.70;90.50
45868;DHT22;31582;45.490;7.860;2023-06-19T03:53:17;19.70;90.60
45868;DHT22;31582;45.490;7.860;2023-06-19T03:55:45;19.70;91.00
45868;DHT22;31582;45.490;7.860;2023-06-19T03:58:12;19.70;91.10
45868;DHT22;31582;45.490;7.860;2023-06-19T04:00:38;19.60;91.10
45868;DHT22;31582;45.490;7.860;2023-06-19T04:03:05;19.60;92.10
45868;DHT22;31582;45.490;7.860;2023-06-19T04:05:32;19.40;94.90
45868;DHT22;31582;45.490;7.860;2023-06-19T04:07:59;19.30;96.00
45868;DHT22;31582;45.490;7.860;2023-06-19T04:10:26;19.20;95.70
45868;DHT22;31582;45.490;7.860;2023-06-19T04:12:53;19.20;96.60
45868;DHT22;31582;45.490;7.860;2023-06-19T04:15:22;19.00;98.10
45868;DHT22;31582;45.490;7.860;2023-06-19T04:17:49;19.00;98.50
45868;DHT22;31582;45.490;7.860;2023-06-19T04:20:16;18.90;98.40
45868;DHT22;31582;45.490;7.860;2023-06-19T04:22:42;18.90;98.20
45868;DHT22;31582;45.490;7.860;2023-06-19T04:25:09;18.90;98.30
45868;DHT22;31582;45.490;7.860;2023-06-19T04:27:39;18.90;98.10
45868;DHT22;31582;45.490;7.860;2023-06-19T04:30:06;18.90;98.40
45868;DHT22;31582;45.490;7.860;2023-06-19T04:32:33;18.90;98.20
45868;DHT22;31582;45.490;7.860;2023-06-19T04:35:02;18.90;99.10
45868;DHT22;31582;45.490;7.860;2023-06-19T04:37:28;18.90;99.10
45868;DHT22;31582;45.490;7.860;2023-06-19T04:39:55;18.80;98.80
45868;DHT22;31582;45.490;7.860;2023-06-19T04:42:22;18.80;99.70
45868;DHT22;31582;45.490;7.860;2023-06-19T04:44:49;18.80;99.90
45868;DHT22;31582;45.490;7.860;2023-06-19T04:47:17;18.80;99.90
45868;DHT22;31582;45.490;7.860;2023-06-19T04:49:44;18.80;99.40
45868;DHT22;31582;45.490;7.860;2023-06-19T04:52:10;18.80;99.00
45868;DHT22;31582;45.490;7.860;2023-06-19T04:54:38;18.90;98.60
45868;DHT22;31582;45.490;7.860;2023-06-19T04:57:04;18.90;98.00
45868;DHT22;31582;45.490;7.860;2023-06-19T04:59:31;19.00;97.90
45868;DHT22;31582;45.490;7.860;2023-06-19T05:01:58;19.00;98.00
45868;DHT22;31582;45.490;7.860;2023-06-19T05:04:25;19.10;97.70
45868;DHT22;31582;45.490;7.860;2023-06-19T05:06:52;19.10;99.40
45868;DHT22;31582;45.490;7.860;2023-06-19T05:09:19;19.20;99.90
45868;DHT22;31582;45.490;7.860;2023-06-19T05:11:46;19.10;99.90
45868;DHT22;31582;45.490;7.860;2023-06-19T05:14:13;19.20;99.90
45868;DHT22;31582;45.490;7.860;2023-06-19T05:16:41;19.20;99.80
45868;DHT22;31582;45.490;7.860;2023-06-19T05:19:08;19.30;99.80
45868;DHT22;31582;45.490;7.860;2023-06-19T05:21:35;19.40;99.40
45868;DHT22;31582;45.490;7.860;2023-06-19T05:24:02;19.40;99.30
45868;DHT22;31582;45.490;7.860;2023-06-19T05:26:29;19.50;99.50
45868;DHT22;31582;45.490;7.860;2023-06-19T05:28:56;19.50;99.90
45868;DHT22;31582;45.490;7.860;2023-06-19T05:31:22;19.60;98.10
45868;DHT22;31582;45.490;7.860;2023-06-19T05:33:49;19.70;94.70
45868;DHT22;31582;45.490;7.860;2023-06-19T05:36:16;19.80;93.20
45868;DHT22;31582;45.490;7.860;2023-06-19T05:38:43;20.00;92.30
45868;DHT22;31582;45.490;7.860;2023-06-19T05:41:10;20.00;92.00
45868;DHT22;31582;45.490;7.860;2023-06-19T05:43:36;20.10;91.50
45868;DHT22;31582;45.490;7.860;2023-06-19T05:46:03;20.10;91.50
45868;DHT22;31582;45.490;7.860;2023-06-19T05:48:30;20.20;91.40
45868;DHT22;31582;45.490;7.860;2023-06-19T05:50:57;20.20;91.30
45868;DHT22;31582;45.490;7.860;2023-06-19T05:53:23;20.20;91.80
45868;DHT22;31582;45.490;7.860;2023-06-19T05:55:50;20.20;91.50
45868;DHT22;31582;45.490;7.860;2023-06-19T05:58:17;20.30;91.00
45868;DHT22;31582;45.490;7.860;2023-06-19T06:00:46;20.30;91.30
45868;DHT22;31582;45.490;7.860;2023-06-19T06:03:13;20.40;91.10
45868;DHT22;31582;45.490;7.860;2023-06-19T06:05:40;20.40;90.70
45868;DHT22;31582;45.490;7.860;2023-06-19T06:08:07;20.50;91.60
45868;DHT22;31582;45.490;7.860;2023-06-19T06:10:34;20.60;90.10
45868;DHT22;31582;45.490;7.860;2023-06-19T06:13:01;20.60;90.40
45868;DHT22;31582;45.490;7.860;2023-06-19T06:15:27;20.70;90.60
45868;DHT22;31582;45.490;7.860;2023-06-19T06:17:55;20.80;90.80
45868;DHT22;31582;45.490;7.860;2023-06-19T06:20:21;20.90;88.70
45868;DHT22;31582;45.490;7.860;2023-06-19T06:22:49;21.00;88.50
45868;DHT22;31582;45.490;7.860;2023-06-19T06:25:15;21.00;88.80
45868;DHT22;31582;45.490;7.860;2023-06-19T06:27:42;21.10;89.70
45868;DHT22;31582;45.490;7.860;2023-06-19T06:30:09;21.10;90.10
45868;DHT22;31582;45.490;7.860;2023-06-19T06:32:38;21.20;90.10
45868;DHT22;31582;45.490;7.860;2023-06-19T06:35:05;21.30;87.20
45868;DHT22;31582;45.490;7.860;2023-06-19T06:37:32;21.40;88.60
45868;DHT22;31582;45.490;7.860;2023-06-19T06:39:59;21.40;88.10
45868;DHT22;31582;45.490;7.860;2023-06-19T06:42:25;21.40;86.70
45868;DHT22;31582;45.490;7.860;2023-06-19T06:44:52;21.50;86.30
45868;DHT22;31582;45.490;7.860;2023-06-19T06:47:19;21.50;86.00
45868;DHT22;31582;45.490;7.860;2023-06-19T06:49:46;21.60;89.40
45868;DHT22;31582;45.490;7.860;2023-06-19T06:52:13;21.80;88.90
45868;DHT22;31582;45.490;7.860;2023-06-19T06:54:40;21.80;88.80
45868;DHT22;31582;45.490;7.860;2023-06-19T06:57:07;22.00;88.50
45868;DHT22;31582;45.490;7.860;2023-06-19T06:59:33;22.10;88.40
45868;DHT22;31582;45.490;7.860;2023-06-19T07:02:00;22.10;88.30
45868;DHT22;31582;45.490;7.860;2023-06-19T07:04:27;22.20;87.10
45868;DHT22;31582;45.490;7.860;2023-06-19T07:06:54;22.30;88.20
45868;DHT22;31582;45.490;7.860;2023-06-19T07:09:21;22.40;89.80
45868;DHT22;31582;45.490;7.860;2023-06-19T07:11:48;22.60;87.00
45868;DHT22;31582;45.490;7.860;2023-06-19T07:14:18;22.60;85.50
45868;DHT22;31582;45.490;7.860;2023-06-19T07:16:45;22.70;83.60
45868;DHT22;31582;45.490;7.860;2023-06-19T07:19:12;22.80;80.10
45868;DHT22;31582;45.490;7.860;2023-06-19T07:21:40;22.90;79.40
45868;DHT22;31582;45.490;7.860;2023-06-19T07:24:07;23.00;77.70
45868;DHT22;31582;45.490;7.860;2023-06-19T07:26:35;23.10;76.30
45868;DHT22;31582;45.490;7.860;2023-06-19T07:29:01;23.20;79.90
45868;DHT22;31582;45.490;7.860;2023-06-19T07:31:28;23.40;80.80
45868;DHT22;31582;45.490;7.860;2023-06-19T07:33:55;23.60;80.70
45868;DHT22;31582;45.490;7.860;2023-06-19T07:36:22;23.70;78.20
45868;DHT22;31582;45.490;7.860;2023-06-19T07:38:49;23.90;75.70
45868;DHT22;31582;45.490;7.860;2023-06-19T07:41:15;24.00;74.60
45868;DHT22;31582;45.490;7.860;2023-06-19T07:43:42;24.10;71.90
45868;DHT22;31582;45.490;7.860;2023-06-19T07:46:09;24.30;72.40
45868;DHT22;31582;45.490;7.860;2023-06-19T07:48:36;24.40;69.20
45868;DHT22;31582;45.490;7.860;2023-06-19T07:51:03;24.50;68.20
45868;DHT22;31582;45.490;7.860;2023-06-19T07:53:30;24.60;69.10
45868;DHT22;31582;45.490;7.860;2023-06-19T07:55:57;24.80;68.90
45868;DHT22;31582;45.490;7.860;2023-06-19T07:58:24;24.90;66.80
45868;DHT22;31582;45.490;7.860;2023-06-19T08:00:51;25.10;68.50
45868;DHT22;31582;45.490;7.860;2023-06-19T08:03:17;25.10;65.10
45868;DHT22;31582;45.490;7.860;2023-06-19T08:05:44;25.30;65.60
45868;DHT22;31582;45.490;7.860;2023-06-19T08:08:12;25.40;65.60
45868;DHT22;31582;45.490;7.860;2023-06-19T08:10:38;25.50;64.60
45868;DHT22;31582;45.490;7.860;2023-06-19T08:13:05;25.50;63.00
45868;DHT22;31582;45.490;7.860;2023-06-19T08:15:32;25.30;63.00
45868;DHT22;31582;45.490;7.860;2023-06-19T08:17:59;25.20;63.10
45868;DHT22;31582;45.490;7.860;2023-06-19T08:20:26;25.30;65.40
45868;DHT22;31582;45.490;7.860;2023-06-19T08:22:53;25.30;64.70
45868;DHT22;31582;45.490;7.860;2023-06-19T08:25:20;25.50;65.90
45868;DHT22;31582;45.490;7.860;2023-06-19T08:27:47;25.60;65.30
45868;DHT22;31582;45.490;7.860;2023-06-19T08:30:13;25.70;64.70
45868;DHT22;31582;45.490;7.860;2023-06-19T08:32:40;25.90;66.60
45868;DHT22;31582;45.490;7.860;2023-06-19T08:35:07;26.10;65.00
45868;DHT22;31582;45.490;7.860;2023-06-19T08:37:34;26.30;64.40
45868;DHT22;31582;45.490;7.860;2023-06-19T08:40:01;26.40;63.70
45868;DHT22;31582;45.490;7.860;2023-06-19T08:42:30;26.30;61.30
45868;DHT22;31582;45.490;7.860;2023-06-19T08:44:56;26.40;62.30
45868;DHT22;31582;45.490;7.860;2023-06-19T08:47:28;26.60;62.30
45868;DHT22;31582;45.490;7.860;2023-06-19T08:49:55;26.60;60.70
45868;DHT22;31582;45.490;7.860;2023-06-19T08:52:22;26.50;60.50
45868;DHT22;31582;45.490;7.860;2023-06-19T08:54:49;26.60;61.00
45868;DHT22;31582;45.490;7.860;2023-06-19T08:57:15;26.80;61.10
45868;DHT22;31582;45.490;7.860;2023-06-19T08:59:49;26.90;61.40
45868;DHT22;31582;45.490;7.860;2023-06-19T09:02:17;27.00;59.00
45868;DHT22;31582;45.490;7.860;2023-06-19T09:04:43;26.90;57.40
45868;DHT22;31582;45.490;7.860;2023-06-19T09:07:11;27.10;59.90
45868;DHT22;31582;45.490;7.860;2023-06-19T09:09:43;27.30;58.50
45868;DHT22;31582;45.490;7.860;2023-06-19T09:12:12;27.20;57.50
45868;DHT22;31582;45.490;7.860;2023-06-19T09:14:42;27.30;55.60
45868;DHT22;31582;45.490;7.860;2023-06-19T09:17:10;27.20;56.00
45868;DHT22;31582;45.490;7.860;2023-06-19T09:19:38;27.20;55.10
45868;DHT22;31582;45.490;7.860;2023-06-19T09:22:07;27.30;55.70
45868;DHT22;31582;45.490;7.860;2023-06-19T09:24:35;27.40;56.30
45868;DHT22;31582;45.490;7.860;2023-06-19T09:27:07;27.50;55.30
45868;DHT22;31582;45.490;7.860;2023-06-19T09:29:37;27.70;56.10
45868;DHT22;31582;45.490;7.860;2023-06-19T09:32:17;27.90;56.00
45868;DHT22;31582;45.490;7.860;2023-06-19T09:34:44;28.00;54.60
45868;DHT22;31582;45.490;7.860;2023-06-19T09:37:11;28.10;54.80
45868;DHT22;31582;45.490;7.860;2023-06-19T09:39:38;28.30;55.00
45868;DHT22;31582;45.490;7.860;2023-06-19T09:42:08;28.40;54.30
45868;DHT22;31582;45.490;7.860;2023-06-19T09:44:42;28.40;54.50
45868;DHT22;31582;45.490;7.860;2023-06-19T09:47:16;28.40;52.80
45868;DHT22;31582;45.490;7.860;2023-06-19T09:49:54;28.30;53.70
45868;DHT22;31582;45.490;7.860;2023-06-19T09:52:21;28.40;54.50
45868;DHT22;31582;45.490;7.860;2023-06-19T09:54:53;28.50;54.70
45868;DHT22;31582;45.490;7.860;2023-06-19T09:57:21;28.50;53.60
45868;DHT22;31582;45.490;7.860;2023-06-19T09:59:51;28.60;54.70
45868;DHT22;31582;45.490;7.860;2023-06-19T10:02:19;28.80;54.10
45868;DHT22;31582;45.490;7.860;2023-06-19T10:04:52;29.00;54.60
45868;DHT22;31582;45.490;7.860;2023-06-19T10:07:20;29.10;52.50
45868;DHT22;31582;45.490;7.860;2023-06-19T10:10:00;29.30;52.30
45868;DHT22;31582;45.490;7.860;2023-06-19T10:12:49;29.10;50.40
45868;DHT22;31582;45.490;7.860;2023-06-19T10:15:15;29.20;51.70
45868;DHT22;31582;45.490;7.860;2023-06-19T10:17:44;29.30;52.00
45868;DHT22;31582;45.490;7.860;2023-06-19T10:20:24;29.60;52.10
45868;DHT22;31582;45.490;7.860;2023-06-19T10:22:52;29.80;51.00
45868;DHT22;31582;45.490;7.860;2023-06-19T10:25:21;29.60;50.30
45868;DHT22;31582;45.490;7.860;2023-06-19T10:27:49;29.80;51.60
45868;DHT22;31582;45.490;7.860;2023-06-19T10:30:19;30.00;50.50
45868;DHT22;31582;45.490;7.860;2023-06-19T10:32:47;30.20;49.20
45868;DHT22;31582;45.490;7.860;2023-06-19T10:35:16;30.20;49.30
45868;DHT22;31582;45.490;7.860;2023-06-19T10:37:44;30.40;50.30
45868;DHT22;31582;45.490;7.860;2023-06-19T10:40:12;30.50;50.00
45868;DHT22;31582;45.490;7.860;2023-06-19T10:42:40;30.70;49.30
45868;DHT22;31582;45.490;7.860;2023-06-19T10:45:08;30.90;48.90
45868;DHT22;31582;45.490;7.860;2023-06-19T10:47:44;30.80;49.10
45868;DHT22;31582;45.490;7.860;2023-06-19T10:50:14;30.80;48.90
45868;DHT22;31582;45.490;7.860;2023-06-19T10:52:44;31.00;48.10
45868;DHT22;31582;45.490;7.860;2023-06-19T10:55:12;31.10;46.20
45868;DHT22;31582;45.490;7.860;2023-06-19T10:57:40;31.20;47.70
45868;DHT22;31582;45.490;7.860;2023-06-19T11:00:10;31.30;47.70
45868;DHT22;31582;45.490;7.860;2023-06-19T11:02:41;31.40;46.80
45868;DHT22;31582;45.490;7.860;2023-06-19T11:05:10;31.60;46.60
45868;DHT22;31582;45.490;7.860;2023-06-19T11:07:38;31.80;45.10
45868;DHT22;31582;45.490;7.860;2023-06-19T11:10:05;31.80;45.30
45868;DHT22;31582;45.490;7.860;2023-06-19T11:12:32;31.80;45.40
45868;DHT22;31582;45.490;7.860;2023-06-19T11:15:03;32.00;45.50
45868;DHT22;31582;45.490;7.860;2023-06-19T11:17:30;32.20;43.80
45868;DHT22;31582;45.490;7.860;2023-06-19T11:19:57;32.10;43.80
45868;DHT22;31582;45.490;7.860;2023-06-19T11:23:00;32.00;43.60
45868;DHT22;31582;45.490;7.860;2023-06-19T11:25:18;31.70;43.40
45868;DHT22;31582;45.490;7.860;2023-06-19T11:27:47;31.60;45.40
45868;DHT22;31582;45.490;7.860;2023-06-19T11:30:18;31.80;47.90
45868;DHT22;31582;45.490;7.860;2023-06-19T11:32:48;31.40;44.60
45868;DHT22;31582;45.490;7.860;2023-06-19T11:35:17;31.10;46.10
45868;DHT22;31582;45.490;7.860;2023-06-19T11:37:44;31.20;46.60
45868;DHT22;31582;45.490;7.860;2023-06-19T11:40:11;31.20;46.80
45868;DHT22;31582;45.490;7.860;2023-06-19T11:42:53;31.00;45.10
45868;DHT22;31582;45.490;7.860;2023-06-19T11:45:21;30.90;46.40
45868;DHT22;31582;45.490;7.860;2023-06-19T11:47:49;30.90;47.90
45868;DHT22;31582;45.490;7.860;2023-06-19T11:50:16;31.10;47.30
45868;DHT22;31582;45.490;7.860;2023-06-19T11:52:44;31.10;47.60
45868;DHT22;31582;45.490;7.860;2023-06-19T11:55:12;31.30;48.00
45868;DHT22;31582;45.490;7.860;2023-06-19T11:57:39;31.10;45.50
45868;DHT22;31582;45.490;7.860;2023-06-19T12:00:16;31.10;46.10
45868;DHT22;31582;45.490;7.860;2023-06-19T12:02:44;31.10;47.10
45868;DHT22;31582;45.490;7.860;2023-06-19T12:05:13;31.10;45.40
45868;DHT22;31582;45.490;7.860;2023-06-19T12:07:41;31.00;45.60
45868;DHT22;31582;45.490;7.860;2023-06-19T12:10:11;31.00;46.20
45868;DHT22;31582;45.490;7.860;2023-06-19T12:12:38;31.20;45.80
45868;DHT22;31582;45.490;7.860;2023-06-19T12:15:05;31.40;46.30
45868;DHT22;31582;45.490;7.860;2023-06-19T12:17:33;31.50;44.40
45868;DHT22;31582;45.490;7.860;2023-06-19T12:20:00;31.70;45.20
45868;DHT22;31582;45.490;7.860;2023-06-19T12:22:27;32.00;45.00
45868;DHT22;31582;45.490;7.860;2023-06-19T12:24:55;32.10;44.90
45868;DHT22;31582;45.490;7.860;2023-06-19T12:27:22;31.70;43.60
45868;DHT22;31582;45.490;7.860;2023-06-19T12:29:49;31.20;44.40
45868;DHT22;31582;45.490;7.860;2023-06-19T12:32:15;30.90;45.60
45868;DHT22;31582;45.490;7.860;2023-06-19T12:34:42;30.50;45.90
45868;DHT22;31582;45.490;7.860;2023-06-19T12:37:16;30.20;46.70
45868;DHT22;31582;45.490;7.860;2023-06-19T12:39:46;29.80;47.90
45868;DHT22;31582;45.490;7.860;2023-06-19T12:42:13;29.70;48.70
45868;DHT22;31582;45.490;7.860;2023-06-19T12:44:40;29.70;49.60
45868;DHT22;31582;45.490;7.860;2023-06-19T12:47:07;29.70;49.00
45868;DHT22;31582;45.490;7.860;2023-06-19T12:49:34;29.70;50.60
45868;DHT22;31582;45.490;7.860;2023-06-19T12:52:01;29.60;48.90
45868;DHT22;31582;45.490;7.860;2023-06-19T12:54:29;29.60;49.50
45868;DHT22;31582;45.490;7.860;2023-06-19T12:56:56;29.70;49.40
45868;DHT22;31582;45.490;7.860;2023-06-19T12:59:23;29.50;49.20
45868;DHT22;31582;45.490;7.860;2023-06-19T13:01:49;29.20;49.10
45868;DHT22;31582;45.490;7.860;2023-06-19T13:04:17;29.00;49.90
45868;DHT22;31582;45.490;7.860;2023-06-19T13:06:44;29.00;49.30
45868;DHT22;31582;45.490;7.860;2023-06-19T13:09:11;29.00;50.80
45868;DHT22;31582;45.490;7.860;2023-06-19T13:11:37;29.00;51.30
45868;DHT22;31582;45.490;7.860;2023-06-19T13:14:04;29.00;50.60
45868;DHT22;31582;45.490;7.860;2023-06-19T13:16:31;29.10;51.50
45868;DHT22;31582;45.490;7.860;2023-06-19T13:19:13;29.20;51.00
45868;DHT22;31582;45.490;7.860;2023-06-19T13:21:41;29.40;50.20
45868;DHT22;31582;45.490;7.860;2023-06-19T13:24:08;29.60;50.70
45868;DHT22;31582;45.490;7.860;2023-06-19T13:26:35;29.70;51.90
45868;DHT22;31582;45.490;7.860;2023-06-19T13:29:02;29.80;49.10
45868;DHT22;31582;45.490;7.860;2023-06-19T13:31:29;30.10;50.20
45868;DHT22;31582;45.490;7.860;2023-06-19T13:33:56;30.50;49.00
45868;DHT22;31582;45.490;7.860;2023-06-19T13:36:23;30.80;47.40
45868;DHT22;31582;45.490;7.860;2023-06-19T13:38:53;31.10;48.00
45868;DHT22;31582;45.490;7.860;2023-06-19T13:41:20;31.50;47.10
45868;DHT22;31582;45.490;7.860;2023-06-19T13:43:50;31.80;45.40
45868;DHT22;31582;45.490;7.860;2023-06-19T13:46:18;31.90;42.90
45868;DHT22;31582;45.490;7.860;2023-06-19T13:48:45;32.10;44.80
45868;DHT22;31582;45.490;7.860;2023-06-19T13:51:22;32.30;45.20
45868;DHT22;31582;45.490;7.860;2023-06-19T13:53:50;32.50;45.50
45868;DHT22;31582;45.490;7.860;2023-06-19T13:56:17;32.80;45.30
45868;DHT22;31582;45.490;7.860;2023-06-19T13:58:44;33.00;44.10
45868;DHT22;31582;45.490;7.860;2023-06-19T14:01:11;33.20;43.90
45868;DHT22;31582;45.490;7.860;2023-06-19T14:03:38;33.30;42.50
45868;DHT22;31582;45.490;7.860;2023-06-19T14:06:08;33.40;43.00
45868;DHT22;31582;45.490;7.860;2023-06-19T14:08:35;33.40;42.80
45868;DHT22;31582;45.490;7.860;2023-06-19T14:11:02;33.30;43.50
45868;DHT22;31582;45.490;7.860;2023-06-19T14:13:29;33.30;42.90
45868;DHT22;31582;45.490;7.860;2023-06-19T14:15:56;33.50;42.40
45868;DHT22;31582;45.490;7.860;2023-06-19T14:18:23;33.70;42.60
45868;DHT22;31582;45.490;7.860;2023-06-19T14:20:50;33.90;42.60
45868;DHT22;31582;45.490;7.860;2023-06-19T14:23:17;34.00;41.60
45868;DHT22;31582;45.490;7.860;2023-06-19T14:25:44;34.10;41.10
45868;DHT22;31582;45.490;7.860;2023-06-19T14:28:11;34.20;41.30
45868;DHT22;31582;45.490;7.860;2023-06-19T14:30:43;34.20;40.80
45868;DHT22;31582;45.490;7.860;2023-06-19T14:33:10;34.00;41.30
45868;DHT22;31582;45.490;7.860;2023-06-19T14:35:42;33.90;41.00
45868;DHT22;31582;45.490;7.860;2023-06-19T14:38:14;33.60;40.90
45868;DHT22;31582;45.490;7.860;2023-06-19T14:40:42;33.70;41.20
45868;DHT22;31582;45.490;7.860;2023-06-19T14:43:08;33.90;41.50
45868;DHT22;31582;45.490;7.860;2023-06-19T14:45:36;33.90;40.40
45868;DHT22;31582;45.490;7.860;2023-06-19T14:48:04;33.80;40.40
45868;DHT22;31582;45.490;7.860;2023-06-19T14:50:31;33.90;41.20
45868;DHT22;31582;45.490;7.860;2023-06-19T14:52:58;34.00;40.30
45868;DHT22;31582;45.490;7.860;2023-06-19T14:55:25;33.90;39.30
45868;DHT22;31582;45.490;7.860;2023-06-19T14:57:51;33.80;40.60
45868;DHT22;31582;45.490;7.860;2023-06-19T15:00:18;33.60;40.60
45868;DHT22;31582;45.490;7.860;2023-06-19T15:02:46;33.30;41.00
45868;DHT22;31582;45.490;7.860;2023-06-19T15:05:13;33.10;41.90
45868;DHT22;31582;45.490;7.860;2023-06-19T15:07:40;32.90;42.50
45868;DHT22;31582;45.490;7.860;2023-06-19T15:10:07;32.80;42.20
45868;DHT22;31582;45.490;7.860;2023-06-19T15:12:34;32.50;42.40
45868;DHT22;31582;45.490;7.860;2023-06-19T15:15:01;32.40;42.90
45868;DHT22;31582;45.490;7.860;2023-06-19T15:17:28;32.50;44.00
45868;DHT22;31582;45.490;7.860;2023-06-19T15:19:55;32.50;42.30
45868;DHT22;31582;45.490;7.860;2023-06-19T15:22:22;32.80;42.30
45868;DHT22;31582;45.490;7.860;2023-06-19T15:24:49;33.00;42.70
45868;DHT22;31582;45.490;7.860;2023-06-19T15:27:16;33.20;42.40
45868;DHT22;31582;45.490;7.860;2023-06-19T15:29:43;33.50;41.30
45868;DHT22;31582;45.490;7.860;2023-06-19T15:32:09;33.60;41.10
45868;DHT22;31582;45.490;7.860;2023-06-19T15:34:36;33.70;41.00
45868;DHT22;31582;45.490;7.860;2023-06-19T15:37:04;33.60;41.00
45868;DHT22;31582;45.490;7.860;2023-06-19T15:39:31;33.50;41.20
45868;DHT22;31582;45.490;7.860;2023-06-19T15:41:58;33.20;39.40
45868;DHT22;31582;45.490;7.860;2023-06-19T15:44:25;33.20;40.00
45868;DHT22;31582;45.490;7.860;2023-06-19T15:46:52;33.20;40.50
45868;DHT22;31582;45.490;7.860;2023-06-19T15:49:19;33.20;40.80
45868;DHT22;31582;45.490;7.860;2023-06-19T15:51:46;33.10;41.10
45868;DHT22;31582;45.490;7.860;2023-06-19T15:54:12;33.10;41.00
45868;DHT22;31582;45.490;7.860;2023-06-19T15:56:39;32.90;41.10
45868;DHT22;31582;45.490;7.860;2023-06-19T15:59:06;32.80;41.70
45868;DHT22;31582;45.490;7.860;2023-06-19T16:01:33;32.60;41.70
45868;DHT22;31582;45.490;7.860;2023-06-19T16:04:00;32.40;42.20
45868;DHT22;31582;45.490;7.860;2023-06-19T16:06:27;32.30;42.70
45868;DHT22;31582;45.490;7.860;2023-06-19T16:08:54;32.10;43.10
45868;DHT22;31582;45.490;7.860;2023-06-19T16:11:23;32.00;43.80
45868;DHT22;31582;45.490;7.860;2023-06-19T16:13:50;31.80;44.70
45868;DHT22;31582;45.490;7.860;2023-06-19T16:16:17;31.70;45.90
45868;DHT22;31582;45.490;7.860;2023-06-19T16:18:44;31.50;46.00
45868;DHT22;31582;45.490;7.860;2023-06-19T16:21:10;31.30;46.00
45868;DHT22;31582;45.490;7.860;2023-06-19T16:23:37;31.10;46.30
45868;DHT22;31582;45.490;7.860;2023-06-19T16:26:06;31.00;46.40
45868;DHT22;31582;45.490;7.860;2023-06-19T16:28:33;30.90;46.80
45868;DHT22;31582;45.490;7.860;2023-06-19T16:31:00;30.90;47.00
45868;DHT22;31582;45.490;7.860;2023-06-19T16:33:27;30.80;47.50
45868;DHT22;31582;45.490;7.860;2023-06-19T16:35:54;30.70;49.10